sensor_id;sensor_type;location;lat;lon;timestamp;P1;durP1;ratioP1;P2;durP2;ratioP2
6561;SDS011;3314;50.890;4.722;2024-03-07T00:01:29;17.9;;;6.1;;
6561;SDS011;3314;50.890;4.722;2024-03-07T00:03:29;17.5;;;6.0;;
6561;SDS011;3314;50.890;4.722;2024-03-07T00:05:30;14.4;;;5.8;;
6561;SDS011;3314;50.890;4.722;2024-03-07T00:07:29;17.2;;;6.0;;
6561;SDS011;3314;50.890;4.722;2024-03-07T00:09:31;16.1;;;6.9;;
6561;SDS011;3314;50.890;4.722;2024-03-07T00:11:20;14.7;;;5.6;;
6561;SDS011;3314;50.890;4.722;2024-03-07T00:13:19;16.5;;;6.6;;
6561;SDS011;3314;50.890;4.722;2024-03-07T00:15:19;16.0;;;6.2;;
6561;SDS011;3314;50.890;4.722;2024-03-07T00:17:19;15.6;;;6.3;;
6561;SDS011;3314;50.890;4.722;2024-03-07T00:19:19;18.0;;;6.5;;
6561;SDS011;3314;50.890;4.722;2024-03-07T00:21:19;16.7;;;6.6;;
6561;SDS011;3314;50.890;4.722;2024-03-07T00:23:19;20.6;;;6.4;;
6561;SDS011;3314;50.890;4.722;2024-03-07T00:25:20;17.0;;;5.9;;
6561;SDS011;3314;50.890;4.722;2024-03-07T00:27:21;15.8;;;6.9;;
6561;SDS011;3314;50.890;4.722;2024-03-07T00:29:21;16.1;;;5.7;;
6561;SDS011;3314;50.890;4.722;2024-03-07T00:31:21;15.3;;;5.9;;
6561;SDS011;3314;50.890;4.722;2024-03-07T00:33:22;16.6;;;6.2;;
6561;SDS011;3314;50.890;4.722;2024-03-07T00:35:22;16.3;;;5.8;;
6561;SDS011;3314;50.890;4.722;2024-03-07T00:37:21;18.7;;;6.8;;
6561;SDS011;3314;50.890;4.722;2024-03-07T00:39:21;13.8;;;5.9;;
6561;SDS011;3314;50.890;4.722;2024-03-07T00:41:21;18.5;;;7.2;;
6561;SDS011;3314;50.890;4.722;2024-03-07T00:43:21;14.5;;;6.2;;
6561;SDS011;3314;50.890;4.722;2024-03-07T00:45:20;13.8;;;5.4;;
6561;SDS011;3314;50.890;4.722;2024-03-07T00:47:20;16.6;;;6.0;;
6561;SDS011;3314;50.890;4.722;2024-03-07T00:49:20;16.4;;;5.6;;
6561;SDS011;3314;50.890;4.722;2024-03-07T00:51:20;15.6;;;5.8;;
6561;SDS011;3314;50.890;4.722;2024-03-07T00:53:19;12.9;;;4.7;;
6561;SDS011;3314;50.890;4.722;2024-03-07T00:55:19;16.8;;;6.1;;
6561;SDS011;3314;50.890;4.722;2024-03-07T00:57:19;16.4;;;6.0;;
6561;SDS011;3314;50.890;4.722;2024-03-07T00:59:19;15.4;;;6.1;;
6561;SDS011;3314;50.890;4.722;2024-03-07T01:01:20;16.1;;;5.8;;
6561;SDS011;3314;50.890;4.722;2024-03-07T01:03:11;15.8;;;5.7;;
6561;SDS011;3314;50.890;4.722;2024-03-07T01:05:14;15.2;;;6.5;;
6561;SDS011;3314;50.890;4.722;2024-03-07T01:07:14;15.7;;;6.0;;
6561;SDS011;3314;50.890;4.722;2024-03-07T01:09:16;18.2;;;6.0;;
6561;SDS011;3314;50.890;4.722;2024-03-07T01:11:16;20.4;;;6.9;;
6561;SDS011;3314;50.890;4.722;2024-03-07T01:13:19;20.7;;;6.4;;
6561;SDS011;3314;50.890;4.722;2024-03-07T01:15:07;18.0;;;6.3;;
6561;SDS011;3314;50.890;4.722;2024-03-07T01:17:08;17.0;;;6.7;;
6561;SDS011;3314;50.890;4.722;2024-03-07T01:19:08;16.8;;;6.7;;
6561;SDS011;3314;50.890;4.722;2024-03-07T01:21:08;20.7;;;7.6;;
6561;SDS011;3314;50.890;4.722;2024-03-07T01:23:08;20.8;;;7.8;;
6561;SDS011;3314;50.890;4.722;2024-03-07T01:25:09;21.3;;;7.4;;
6561;SDS011;3314;50.890;4.722;2024-03-07T01:27:09;22.5;;;8.8;;
6561;SDS011;3314;50.890;4.722;2024-03-07T01:29:08;19.1;;;8.5;;
6561;SDS011;3314;50.890;4.722;2024-03-07T01:31:08;21.4;;;8.0;;
6561;SDS011;3314;50.890;4.722;2024-03-07T01:33:08;22.0;;;8.2;;
6561;SDS011;3314;50.890;4.722;2024-03-07T01:35:08;24.7;;;8.3;;
6561;SDS011;3314;50.890;4.722;2024-03-07T01:37:09;23.5;;;8.9;;
6561;SDS011;3314;50.890;4.722;2024-03-07T01:39:11;21.9;;;9.0;;
6561;SDS011;3314;50.890;4.722;2024-03-07T01:41:10;17.9;;;7.9;;
6561;SDS011;3314;50.890;4.722;2024-03-07T01:43:10;18.2;;;7.4;;
6561;SDS011;3314;50.890;4.722;2024-03-07T01:45:00;17.1;;;7.5;;
6561;SDS011;3314;50.890;4.722;2024-03-07T01:47:03;19.8;;;7.1;;
6561;SDS011;3314;50.890;4.722;2024-03-07T01:49:03;18.1;;;7.1;;
6561;SDS011;3314;50.890;4.722;2024-03-07T01:51:04;16.3;;;7.2;;
6561;SDS011;3314;50.890;4.722;2024-03-07T01:53:03;20.7;;;8.2;;
6561;SDS011;3314;50.890;4.722;2024-03-07T01:55:04;19.0;;;6.7;;
6561;SDS011;3314;50.890;4.722;2024-03-07T01:57:04;21.9;;;8.0;;
6561;SDS011;3314;50.890;4.722;2024-03-07T01:59:03;22.3;;;8.2;;
6561;SDS011;3314;50.890;4.722;2024-03-07T02:01:04;20.5;;;8.0;;
6561;SDS011;3314;50.890;4.722;2024-03-07T02:03:04;22.1;;;8.3;;
6561;SDS011;3314;50.890;4.722;2024-03-07T02:05:04;19.7;;;8.6;;
6561;SDS011;3314;50.890;4.722;2024-03-07T02:07:04;21.2;;;8.1;;
6561;SDS011;3314;50.890;4.722;2024-03-07T02:09:06;18.8;;;7.9;;
6561;SDS011;3314;50.890;4.722;2024-03-07T02:10:54;21.1;;;8.1;;
6561;SDS011;3314;50.890;4.722;2024-03-07T02:12:54;22.6;;;7.8;;
6561;SDS011;3314;50.890;4.722;2024-03-07T02:14:53;19.1;;;7.2;;
6561;SDS011;3314;50.890;4.722;2024-03-07T02:16:53;18.3;;;7.7;;
6561;SDS011;3314;50.890;4.722;2024-03-07T02:18:53;18.7;;;7.4;;
6561;SDS011;3314;50.890;4.722;2024-03-07T02:20:53;18.2;;;7.0;;
6561;SDS011;3314;50.890;4.722;2024-03-07T02:22:53;19.0;;;7.5;;
6561;SDS011;3314;50.890;4.722;2024-03-07T02:24:53;24.4;;;7.9;;
6561;SDS011;3314;50.890;4.722;2024-03-07T02:26:53;16.6;;;7.2;;
6561;SDS011;3314;50.890;4.722;2024-03-07T02:28:52;18.9;;;7.2;;
6561;SDS011;3314;50.890;4.722;2024-03-07T02:30:52;16.5;;;6.5;;
6561;SDS011;3314;50.890;4.722;2024-03-07T02:32:55;16.6;;;5.9;;
6561;SDS011;3314;50.890;4.722;2024-03-07T02:34:54;14.4;;;5.5;;
6561;SDS011;3314;50.890;4.722;2024-03-07T02:36:54;15.5;;;6.7;;
6561;SDS011;3314;50.890;4.722;2024-03-07T02:38:54;14.7;;;6.3;;
6561;SDS011;3314;50.890;4.722;2024-03-07T02:40:54;19.3;;;6.6;;
6561;SDS011;3314;50.890;4.722;2024-03-07T02:42:54;18.4;;;5.7;;
6561;SDS011;3314;50.890;4.722;2024-03-07T02:44:54;17.4;;;7.7;;
6561;SDS011;3314;50.890;4.722;2024-03-07T02:46:55;17.6;;;7.4;;
6561;SDS011;3314;50.890;4.722;2024-03-07T02:48:54;15.6;;;6.8;;
6561;SDS011;3314;50.890;4.722;2024-03-07T02:50:54;22.3;;;7.1;;
6561;SDS011;3314;50.890;4.722;2024-03-07T02:52:54;16.6;;;6.6;;
6561;SDS011;3314;50.890;4.722;2024-03-07T02:54:53;20.7;;;6.9;;
6561;SDS011;3314;50.890;4.722;2024-03-07T02:56:53;14.4;;;6.6;;
6561;SDS011;3314;50.890;4.722;2024-03-07T02:58:53;18.5;;;7.2;;
6561;SDS011;3314;50.890;4.722;2024-03-07T03:00:57;17.1;;;7.1;;
6561;SDS011;3314;50.890;4.722;2024-03-07T03:02:45;17.4;;;6.7;;
6561;SDS011;3314;50.890;4.722;2024-03-07T03:04:44;16.5;;;6.9;;
6561;SDS011;3314;50.890;4.722;2024-03-07T03:06:44;21.8;;;8.1;;
6561;SDS011;3314;50.890;4.722;2024-03-07T03:08:44;22.7;;;8.2;;
6561;SDS011;3314;50.890;4.722;2024-03-07T03:10:44;20.1;;;7.4;;
6561;SDS011;3314;50.890;4.722;2024-03-07T03:12:44;19.4;;;8.4;;
6561;SDS011;3314;50.890;4.722;2024-03-07T03:14:44;20.3;;;7.9;;
6561;SDS011;3314;50.890;4.722;2024-03-07T03:16:44;17.5;;;6.9;;
6561;SDS011;3314;50.890;4.722;2024-03-07T03:18:43;20.1;;;7.6;;
6561;SDS011;3314;50.890;4.722;2024-03-07T03:20:44;21.7;;;8.4;;
6561;SDS011;3314;50.890;4.722;2024-03-07T03:22:44;25.0;;;9.4;;
6561;SDS011;3314;50.890;4.722;2024-03-07T03:24:44;25.8;;;9.0;;
6561;SDS011;3314;50.890;4.722;2024-03-07T03:26:44;19.0;;;7.7;;
6561;SDS011;3314;50.890;4.722;2024-03-07T03:28:45;20.4;;;8.2;;
6561;SDS011;3314;50.890;4.722;2024-03-07T03:30:45;22.1;;;7.7;;
6561;SDS011;3314;50.890;4.722;2024-03-07T03:32:45;24.0;;;8.5;;
6561;SDS011;3314;50.890;4.722;2024-03-07T03:34:44;22.5;;;9.3;;
6561;SDS011;3314;50.890;4.722;2024-03-07T03:36:44;20.2;;;8.2;;
6561;SDS011;3314;50.890;4.722;2024-03-07T03:38:44;24.4;;;8.3;;
6561;SDS011;3314;50.890;4.722;2024-03-07T03:40:45;19.1;;;7.4;;
6561;SDS011;3314;50.890;4.722;2024-03-07T03:42:34;23.8;;;8.0;;
6561;SDS011;3314;50.890;4.722;2024-03-07T03:44:35;22.7;;;8.5;;
6561;SDS011;3314;50.890;4.722;2024-03-07T03:46:35;20.7;;;8.4;;
6561;SDS011;3314;50.890;4.722;2024-03-07T03:48:34;24.5;;;9.2;;
6561;SDS011;3314;50.890;4.722;2024-03-07T03:50:34;23.6;;;9.0;;
6561;SDS011;3314;50.890;4.722;2024-03-07T03:52:35;23.6;;;8.9;;
6561;SDS011;3314;50.890;4.722;2024-03-07T03:54:35;21.9;;;8.8;;
6561;SDS011;3314;50.890;4.722;2024-03-07T03:56:34;26.1;;;9.1;;
6561;SDS011;3314;50.890;4.722;2024-03-07T03:58:35;21.8;;;8.4;;
6561;SDS011;3314;50.890;4.722;2024-03-07T04:00:34;23.5;;;9.5;;
6561;SDS011;3314;50.890;4.722;2024-03-07T04:02:34;22.4;;;9.3;;
6561;SDS011;3314;50.890;4.722;2024-03-07T04:04:33;26.5;;;10.2;;
6561;SDS011;3314;50.890;4.722;2024-03-07T04:06:33;21.4;;;8.5;;
6561;SDS011;3314;50.890;4.722;2024-03-07T04:08:33;18.4;;;7.9;;
6561;SDS011;3314;50.890;4.722;2024-03-07T04:10:32;24.1;;;9.5;;
6561;SDS011;3314;50.890;4.722;2024-03-07T04:12:32;21.7;;;9.1;;
6561;SDS011;3314;50.890;4.722;2024-03-07T04:14:33;27.2;;;10.9;;
6561;SDS011;3314;50.890;4.722;2024-03-07T04:16:33;23.0;;;10.1;;
6561;SDS011;3314;50.890;4.722;2024-03-07T04:18:33;24.6;;;9.6;;
6561;SDS011;3314;50.890;4.722;2024-03-07T04:20:33;27.2;;;10.5;;
6561;SDS011;3314;50.890;4.722;2024-03-07T04:22:33;30.2;;;10.1;;
6561;SDS011;3314;50.890;4.722;2024-03-07T04:24:33;27.3;;;11.3;;
6561;SDS011;3314;50.890;4.722;2024-03-07T04:26:33;30.9;;;11.8;;
6561;SDS011;3314;50.890;4.722;2024-03-07T04:28:33;31.3;;;11.7;;
6561;SDS011;3314;50.890;4.722;2024-03-07T04:30:32;28.3;;;11.5;;
6561;SDS011;3314;50.890;4.722;2024-03-07T04:32:32;25.9;;;11.5;;
6561;SDS011;3314;50.890;4.722;2024-03-07T04:34:32;29.1;;;11.5;;
6561;SDS011;3314;50.890;4.722;2024-03-07T04:36:33;26.7;;;11.1;;
6561;SDS011;3314;50.890;4.722;2024-03-07T04:38:21;28.7;;;12.6;;
6561;SDS011;3314;50.890;4.722;2024-03-07T04:40:22;27.6;;;11.6;;
6561;SDS011;3314;50.890;4.722;2024-03-07T04:42:21;31.6;;;13.6;;
6561;SDS011;3314;50.890;4.722;2024-03-07T04:44:22;32.6;;;13.9;;
6561;SDS011;3314;50.890;4.722;2024-03-07T04:46:22;30.9;;;13.4;;
6561;SDS011;3314;50.890;4.722;2024-03-07T04:48:22;30.6;;;12.3;;
6561;SDS011;3314;50.890;4.722;2024-03-07T04:50:21;36.9;;;13.1;;
6561;SDS011;3314;50.890;4.722;2024-03-07T04:52:22;31.2;;;13.2;;
6561;SDS011;3314;50.890;4.722;2024-03-07T04:54:22;30.8;;;12.6;;
6561;SDS011;3314;50.890;4.722;2024-03-07T04:56:22;28.7;;;11.6;;
6561;SDS011;3314;50.890;4.722;2024-03-07T04:58:21;32.4;;;13.8;;
6561;SDS011;3314;50.890;4.722;2024-03-07T05:00:24;35.3;;;13.2;;
6561;SDS011;3314;50.890;4.722;2024-03-07T05:02:24;33.4;;;13.2;;
6561;SDS011;3314;50.890;4.722;2024-03-07T05:04:25;36.6;;;14.4;;
6561;SDS011;3314;50.890;4.722;2024-03-07T05:06:24;38.0;;;14.6;;
6561;SDS011;3314;50.890;4.722;2024-03-07T05:08:24;38.8;;;15.2;;
6561;SDS011;3314;50.890;4.722;2024-03-07T05:10:24;35.1;;;14.1;;
6561;SDS011;3314;50.890;4.722;2024-03-07T05:12:17;34.6;;;14.4;;
6561;SDS011;3314;50.890;4.722;2024-03-07T05:14:17;41.2;;;16.3;;
6561;SDS011;3314;50.890;4.722;2024-03-07T05:16:18;39.1;;;15.3;;
6561;SDS011;3314;50.890;4.722;2024-03-07T05:18:17;42.9;;;16.9;;
6561;SDS011;3314;50.890;4.722;2024-03-07T05:20:17;47.7;;;17.2;;
6561;SDS011;3314;50.890;4.722;2024-03-07T05:22:18;40.8;;;17.0;;
6561;SDS011;3314;50.890;4.722;2024-03-07T05:24:18;42.7;;;16.8;;
6561;SDS011;3314;50.890;4.722;2024-03-07T05:26:18;46.9;;;18.5;;
6561;SDS011;3314;50.890;4.722;2024-03-07T05:28:19;42.1;;;16.9;;
6561;SDS011;3314;50.890;4.722;2024-03-07T05:30:19;44.5;;;17.3;;
6561;SDS011;3314;50.890;4.722;2024-03-07T05:32:20;44.3;;;18.4;;
6561;SDS011;3314;50.890;4.722;2024-03-07T05:34:09;43.3;;;17.6;;
6561;SDS011;3314;50.890;4.722;2024-03-07T05:36:15;45.3;;;17.9;;
6561;SDS011;3314;50.890;4.722;2024-03-07T05:38:14;44.3;;;16.7;;
6561;SDS011;3314;50.890;4.722;2024-03-07T05:40:14;47.4;;;18.2;;
6561;SDS011;3314;50.890;4.722;2024-03-07T05:42:14;40.7;;;17.7;;
6561;SDS011;3314;50.890;4.722;2024-03-07T05:44:14;49.5;;;19.1;;
6561;SDS011;3314;50.890;4.722;2024-03-07T05:46:14;45.9;;;18.6;;
6561;SDS011;3314;50.890;4.722;2024-03-07T05:48:14;46.1;;;17.8;;
6561;SDS011;3314;50.890;4.722;2024-03-07T05:50:14;45.8;;;18.7;;
6561;SDS011;3314;50.890;4.722;2024-03-07T05:52:14;50.9;;;18.8;;
6561;SDS011;3314;50.890;4.722;2024-03-07T05:54:14;45.7;;;18.3;;
6561;SDS011;3314;50.890;4.722;2024-03-07T05:56:15;50.4;;;20.3;;
6561;SDS011;3314;50.890;4.722;2024-03-07T05:58:06;45.1;;;18.8;;
6561;SDS011;3314;50.890;4.722;2024-03-07T06:00:10;48.5;;;20.2;;
6561;SDS011;3314;50.890;4.722;2024-03-07T06:02:13;53.8;;;21.6;;
6561;SDS011;3314;50.890;4.722;2024-03-07T06:04:03;51.1;;;20.6;;
6561;SDS011;3314;50.890;4.722;2024-03-07T06:06:05;52.9;;;20.7;;
6561;SDS011;3314;50.890;4.722;2024-03-07T06:08:07;56.3;;;20.7;;
6561;SDS011;3314;50.890;4.722;2024-03-07T06:10:11;54.0;;;20.4;;
6561;SDS011;3314;50.890;4.722;2024-03-07T06:12:00;53.1;;;21.8;;
6561;SDS011;3314;50.890;4.722;2024-03-07T06:14:03;49.1;;;20.7;;
6561;SDS011;3314;50.890;4.722;2024-03-07T06:16:06;56.5;;;22.6;;
6561;SDS011;3314;50.890;4.722;2024-03-07T06:18:05;62.4;;;24.1;;
6561;SDS011;3314;50.890;4.722;2024-03-07T06:20:17;59.1;;;23.3;;
6561;SDS011;3314;50.890;4.722;2024-03-07T06:22:09;64.8;;;22.4;;
6561;SDS011;3314;50.890;4.722;2024-03-07T06:24:00;61.4;;;23.6;;
6561;SDS011;3314;50.890;4.722;2024-03-07T06:26:01;55.7;;;22.6;;
6561;SDS011;3314;50.890;4.722;2024-03-07T06:28:09;60.3;;;23.7;;
6561;SDS011;3314;50.890;4.722;2024-03-07T06:29:56;65.0;;;25.0;;
6561;SDS011;3314;50.890;4.722;2024-03-07T06:31:56;66.9;;;25.8;;
6561;SDS011;3314;50.890;4.722;2024-03-07T06:33:56;74.6;;;27.4;;
6561;SDS011;3314;50.890;4.722;2024-03-07T06:35:57;64.5;;;26.3;;
6561;SDS011;3314;50.890;4.722;2024-03-07T06:37:57;78.0;;;26.7;;
6561;SDS011;3314;50.890;4.722;2024-03-07T06:39:57;72.1;;;28.3;;
6561;SDS011;3314;50.890;4.722;2024-03-07T06:41:56;79.3;;;29.1;;
6561;SDS011;3314;50.890;4.722;2024-03-07T06:43:56;78.8;;;27.8;;
6561;SDS011;3314;50.890;4.722;2024-03-07T06:45:56;81.2;;;28.5;;
6561;SDS011;3314;50.890;4.722;2024-03-07T06:47:57;82.3;;;28.5;;
6561;SDS011;3314;50.890;4.722;2024-03-07T06:49:56;73.7;;;28.2;;
6561;SDS011;3314;50.890;4.722;2024-03-07T06:51:56;75.0;;;27.7;;
6561;SDS011;3314;50.890;4.722;2024-03-07T06:53:57;83.9;;;28.7;;
6561;SDS011;3314;50.890;4.722;2024-03-07T06:55:59;77.0;;;28.6;;
6561;SDS011;3314;50.890;4.722;2024-03-07T06:57:59;79.4;;;27.1;;
6561;SDS011;3314;50.890;4.722;2024-03-07T06:59:59;80.6;;;27.8;;
6561;SDS011;3314;50.890;4.722;2024-03-07T07:01:59;79.3;;;27.8;;
6561;SDS011;3314;50.890;4.722;2024-03-07T07:04:03;85.0;;;28.8;;
6561;SDS011;3314;50.890;4.722;2024-03-07T07:05:51;91.6;;;29.5;;
6561;SDS011;3314;50.890;4.722;2024-03-07T07:07:51;84.3;;;27.6;;
6561;SDS011;3314;50.890;4.722;2024-03-07T07:09:52;76.7;;;27.2;;
6561;SDS011;3314;50.890;4.722;2024-03-07T07:11:52;83.2;;;27.8;;
6561;SDS011;3314;50.890;4.722;2024-03-07T07:13:52;82.5;;;26.9;;
6561;SDS011;3314;50.890;4.722;2024-03-07T07:15:52;79.4;;;27.4;;
6561;SDS011;3314;50.890;4.722;2024-03-07T07:17:52;76.2;;;28.8;;
6561;SDS011;3314;50.890;4.722;2024-03-07T07:19:54;76.0;;;27.4;;
6561;SDS011;3314;50.890;4.722;2024-03-07T07:21:54;83.7;;;26.7;;
6561;SDS011;3314;50.890;4.722;2024-03-07T07:23:54;74.9;;;27.3;;
6561;SDS011;3314;50.890;4.722;2024-03-07T07:25:54;77.3;;;27.2;;
6561;SDS011;3314;50.890;4.722;2024-03-07T07:27:53;84.4;;;28.4;;
6561;SDS011;3314;50.890;4.722;2024-03-07T07:29:53;79.2;;;27.2;;
6561;SDS011;3314;50.890;4.722;2024-03-07T07:31:53;85.6;;;27.6;;
6561;SDS011;3314;50.890;4.722;2024-03-07T07:33:43;77.1;;;27.3;;
6561;SDS011;3314;50.890;4.722;2024-03-07T07:35:43;77.9;;;26.7;;
6561;SDS011;3314;50.890;4.722;2024-03-07T07:37:44;77.3;;;27.1;;
6561;SDS011;3314;50.890;4.722;2024-03-07T07:39:43;72.5;;;26.9;;
6561;SDS011;3314;50.890;4.722;2024-03-07T07:41:43;80.3;;;27.8;;
6561;SDS011;3314;50.890;4.722;2024-03-07T07:43:43;76.3;;;26.4;;
6561;SDS011;3314;50.890;4.722;2024-03-07T07:45:43;75.4;;;27.1;;
6561;SDS011;3314;50.890;4.722;2024-03-07T07:47:43;72.8;;;26.3;;
6561;SDS011;3314;50.890;4.722;2024-03-07T07:49:43;77.1;;;27.4;;
6561;SDS011;3314;50.890;4.722;2024-03-07T07:51:43;73.2;;;25.6;;
6561;SDS011;3314;50.890;4.722;2024-03-07T07:53:44;81.0;;;27.4;;
6561;SDS011;3314;50.890;4.722;2024-03-07T07:55:43;84.2;;;27.2;;
6561;SDS011;3314;50.890;4.722;2024-03-07T07:57:45;64.7;;;26.1;;
6561;SDS011;3314;50.890;4.722;2024-03-07T07:59:45;76.1;;;26.2;;
6561;SDS011;3314;50.890;4.722;2024-03-07T08:01:44;76.5;;;27.3;;
6561;SDS011;3314;50.890;4.722;2024-03-07T08:03:44;72.5;;;26.5;;
6561;SDS011;3314;50.890;4.722;2024-03-07T08:05:44;74.1;;;26.9;;
6561;SDS011;3314;50.890;4.722;2024-03-07T08:07:43;70.6;;;26.0;;
6561;SDS011;3314;50.890;4.722;2024-03-07T08:09:43;75.6;;;25.9;;
6561;SDS011;3314;50.890;4.722;2024-03-07T08:11:43;77.2;;;27.7;;
6561;SDS011;3314;50.890;4.722;2024-03-07T08:13:44;70.6;;;27.1;;
6561;SDS011;3314;50.890;4.722;2024-03-07T08:15:34;76.3;;;27.6;;
6561;SDS011;3314;50.890;4.722;2024-03-07T08:17:33;71.8;;;26.9;;
6561;SDS011;3314;50.890;4.722;2024-03-07T08:19:34;76.2;;;28.8;;
6561;SDS011;3314;50.890;4.722;2024-03-07T08:21:33;80.0;;;30.0;;
6561;SDS011;3314;50.890;4.722;2024-03-07T08:23:33;73.4;;;26.7;;
6561;SDS011;3314;50.890;4.722;2024-03-07T08:25:33;84.3;;;29.6;;
6561;SDS011;3314;50.890;4.722;2024-03-07T08:27:32;78.3;;;27.3;;
6561;SDS011;3314;50.890;4.722;2024-03-07T08:29:32;77.6;;;27.5;;
6561;SDS011;3314;50.890;4.722;2024-03-07T08:31:32;77.4;;;29.0;;
6561;SDS011;3314;50.890;4.722;2024-03-07T08:33:33;76.3;;;27.6;;
6561;SDS011;3314;50.890;4.722;2024-03-07T08:35:33;85.2;;;28.5;;
6561;SDS011;3314;50.890;4.722;2024-03-07T08:37:35;74.1;;;27.7;;
6561;SDS011;3314;50.890;4.722;2024-03-07T08:39:34;74.2;;;30.0;;
6561;SDS011;3314;50.890;4.722;2024-03-07T08:41:37;80.4;;;27.7;;
6561;SDS011;3314;50.890;4.722;2024-03-07T08:43:37;71.8;;;27.8;;
6561;SDS011;3314;50.890;4.722;2024-03-07T08:45:28;76.5;;;28.0;;
6561;SDS011;3314;50.890;4.722;2024-03-07T08:47:28;73.8;;;27.5;;
6561;SDS011;3314;50.890;4.722;2024-03-07T08:49:29;75.4;;;27.8;;
6561;SDS011;3314;50.890;4.722;2024-03-07T08:51:29;75.6;;;29.4;;
6561;SDS011;3314;50.890;4.722;2024-03-07T08:53:29;68.2;;;28.4;;
6561;SDS011;3314;50.890;4.722;2024-03-07T08:55:28;74.0;;;27.3;;
6561;SDS011;3314;50.890;4.722;2024-03-07T08:57:28;72.6;;;29.3;;
6561;SDS011;3314;50.890;4.722;2024-03-07T08:59:28;76.0;;;27.3;;
6561;SDS011;3314;50.890;4.722;2024-03-07T09:01:27;78.8;;;29.8;;
6561;SDS011;3314;50.890;4.722;2024-03-07T09:03:27;80.7;;;29.0;;
6561;SDS011;3314;50.890;4.722;2024-03-07T09:05:27;71.4;;;28.1;;
6561;SDS011;3314;50.890;4.722;2024-03-07T09:07:26;70.4;;;29.1;;
6561;SDS011;3314;50.890;4.722;2024-03-07T09:09:26;72.1;;;27.9;;
6561;SDS011;3314;50.890;4.722;2024-03-07T09:11:29;68.7;;;27.3;;
6561;SDS011;3314;50.890;4.722;2024-03-07T09:13:28;74.2;;;28.3;;
6561;SDS011;3314;50.890;4.722;2024-03-07T09:15:28;69.0;;;28.0;;
6561;SDS011;3314;50.890;4.722;2024-03-07T09:17:28;66.3;;;26.8;;
6561;SDS011;3314;50.890;4.722;2024-03-07T09:19:29;63.5;;;27.4;;
6561;SDS011;3314;50.890;4.722;2024-03-07T09:21:29;70.9;;;26.7;;
6561;SDS011;3314;50.890;4.722;2024-03-07T09:23:28;64.1;;;25.8;;
6561;SDS011;3314;50.890;4.722;2024-03-07T09:25:28;60.9;;;25.1;;
6561;SDS011;3314;50.890;4.722;2024-03-07T09:27:28;70.6;;;26.9;;
6561;SDS011;3314;50.890;4.722;2024-03-07T09:29:28;65.3;;;26.1;;
6561;SDS011;3314;50.890;4.722;2024-03-07T09:31:27;65.6;;;26.3;;
6561;SDS011;3314;50.890;4.722;2024-03-07T09:33:27;72.5;;;26.2;;
6561;SDS011;3314;50.890;4.722;2024-03-07T09:35:27;64.0;;;25.3;;
6561;SDS011;3314;50.890;4.722;2024-03-07T09:37:16;73.2;;;26.5;;
6561;SDS011;3314;50.890;4.722;2024-03-07T09:39:17;69.4;;;25.3;;
6561;SDS011;3314;50.890;4.722;2024-03-07T09:41:17;67.1;;;25.6;;
6561;SDS011;3314;50.890;4.722;2024-03-07T09:43:17;63.8;;;25.7;;
6561;SDS011;3314;50.890;4.722;2024-03-07T09:45:19;62.9;;;25.4;;
6561;SDS011;3314;50.890;4.722;2024-03-07T09:47:19;62.0;;;25.9;;
6561;SDS011;3314;50.890;4.722;2024-03-07T09:49:19;66.6;;;27.2;;
6561;SDS011;3314;50.890;4.722;2024-03-07T09:51:19;58.8;;;23.5;;
6561;SDS011;3314;50.890;4.722;2024-03-07T09:53:20;56.1;;;23.5;;
6561;SDS011;3314;50.890;4.722;2024-03-07T09:55:22;66.8;;;26.5;;
6561;SDS011;3314;50.890;4.722;2024-03-07T09:57:22;53.1;;;23.4;;
6561;SDS011;3314;50.890;4.722;2024-03-07T09:59:23;62.2;;;24.8;;
6561;SDS011;3314;50.890;4.722;2024-03-07T10:01:12;63.2;;;24.0;;
6561;SDS011;3314;50.890;4.722;2024-03-07T10:03:14;55.9;;;22.1;;
6561;SDS011;3314;50.890;4.722;2024-03-07T10:05:14;57.2;;;22.6;;
6561;SDS011;3314;50.890;4.722;2024-03-07T10:07:14;54.6;;;24.3;;
6561;SDS011;3314;50.890;4.722;2024-03-07T10:09:14;57.4;;;24.6;;
6561;SDS011;3314;50.890;4.722;2024-03-07T10:11:15;53.3;;;23.3;;
6561;SDS011;3314;50.890;4.722;2024-03-07T10:13:15;53.8;;;23.1;;
6561;SDS011;3314;50.890;4.722;2024-03-07T10:15:17;54.3;;;22.5;;
6561;SDS011;3314;50.890;4.722;2024-03-07T10:17:18;53.5;;;21.8;;
6561;SDS011;3314;50.890;4.722;2024-03-07T10:19:18;48.5;;;20.7;;
6561;SDS011;3314;50.890;4.722;2024-03-07T10:21:19;49.3;;;21.5;;
6561;SDS011;3314;50.890;4.722;2024-03-07T10:23:08;54.5;;;24.0;;
6561;SDS011;3314;50.890;4.722;2024-03-07T10:25:08;56.8;;;23.2;;
6561;SDS011;3314;50.890;4.722;2024-03-07T10:27:09;48.8;;;22.0;;
6561;SDS011;3314;50.890;4.722;2024-03-07T10:29:09;51.1;;;21.4;;
6561;SDS011;3314;50.890;4.722;2024-03-07T10:31:11;49.9;;;21.1;;
6561;SDS011;3314;50.890;4.722;2024-03-07T10:33:16;49.1;;;21.9;;
6561;SDS011;3314;50.890;4.722;2024-03-07T10:35:07;49.6;;;21.4;;
6561;SDS011;3314;50.890;4.722;2024-03-07T10:37:09;51.8;;;22.8;;
6561;SDS011;3314;50.890;4.722;2024-03-07T10:39:14;45.4;;;20.4;;
6561;SDS011;3314;50.890;4.722;2024-03-07T10:41:16;44.1;;;20.7;;
6561;SDS011;3314;50.890;4.722;2024-03-07T10:43:10;47.9;;;20.6;;
6561;SDS011;3314;50.890;4.722;2024-03-07T10:45:11;46.9;;;20.1;;
6561;SDS011;3314;50.890;4.722;2024-03-07T10:47:13;47.1;;;20.6;;
6561;SDS011;3314;50.890;4.722;2024-03-07T10:49:03;47.4;;;19.7;;
6561;SDS011;3314;50.890;4.722;2024-03-07T10:51:09;47.3;;;20.7;;
6561;SDS011;3314;50.890;4.722;2024-03-07T10:53:07;50.5;;;20.6;;
6561;SDS011;3314;50.890;4.722;2024-03-07T10:55:08;44.5;;;19.4;;
6561;SDS011;3314;50.890;4.722;2024-03-07T10:57:19;46.5;;;21.2;;
6561;SDS011;3314;50.890;4.722;2024-03-07T10:59:15;45.1;;;20.9;;
6561;SDS011;3314;50.890;4.722;2024-03-07T11:01:06;47.2;;;19.0;;
6561;SDS011;3314;50.890;4.722;2024-03-07T11:03:07;50.6;;;20.8;;
6561;SDS011;3314;50.890;4.722;2024-03-07T11:05:12;51.3;;;19.7;;
6561;SDS011;3314;50.890;4.722;2024-03-07T11:07:01;46.3;;;19.7;;
6561;SDS011;3314;50.890;4.722;2024-03-07T11:09:01;51.5;;;19.9;;
6561;SDS011;3314;50.890;4.722;2024-03-07T11:11:02;43.8;;;19.5;;
6561;SDS011;3314;50.890;4.722;2024-03-07T11:13:02;41.7;;;19.5;;
6561;SDS011;3314;50.890;4.722;2024-03-07T11:15:06;40.2;;;17.6;;
6561;SDS011;3314;50.890;4.722;2024-03-07T11:16:57;43.1;;;19.2;;
6561;SDS011;3314;50.890;4.722;2024-03-07T11:19:31;40.6;;;19.4;;
6561;SDS011;3314;50.890;4.722;2024-03-07T11:21:08;44.0;;;19.3;;
6561;SDS011;3314;50.890;4.722;2024-03-07T11:23:24;40.8;;;18.2;;
6561;SDS011;3314;50.890;4.722;2024-03-07T11:25:00;38.1;;;18.0;;
6561;SDS011;3314;50.890;4.722;2024-03-07T11:27:02;42.6;;;18.3;;
6561;SDS011;3314;50.890;4.722;2024-03-07T11:29:16;41.9;;;18.8;;
6561;SDS011;3314;50.890;4.722;2024-03-07T11:31:09;46.6;;;19.5;;
6561;SDS011;3314;50.890;4.722;2024-03-07T11:33:01;38.6;;;17.8;;
6561;SDS011;3314;50.890;4.722;2024-03-07T11:35:03;37.4;;;17.1;;
6561;SDS011;3314;50.890;4.722;2024-03-07T11:37:08;38.9;;;17.8;;
6561;SDS011;3314;50.890;4.722;2024-03-07T11:38:56;43.2;;;17.1;;
6561;SDS011;3314;50.890;4.722;2024-03-07T11:40:59;40.2;;;18.4;;
6561;SDS011;3314;50.890;4.722;2024-03-07T11:43:00;39.9;;;17.7;;
6561;SDS011;3314;50.890;4.722;2024-03-07T11:45:00;42.4;;;18.8;;
6561;SDS011;3314;50.890;4.722;2024-03-07T11:47:00;39.2;;;16.9;;
6561;SDS011;3314;50.890;4.722;2024-03-07T11:49:00;39.8;;;18.1;;
6561;SDS011;3314;50.890;4.722;2024-03-07T11:51:00;44.0;;;18.9;;
6561;SDS011;3314;50.890;4.722;2024-03-07T11:53:00;46.4;;;22.2;;
6561;SDS011;3314;50.890;4.722;2024-03-07T11:55:04;51.3;;;20.3;;
6561;SDS011;3314;50.890;4.722;2024-03-07T11:56:54;43.3;;;19.8;;
6561;SDS011;3314;50.890;4.722;2024-03-07T11:58:55;44.6;;;19.1;;
6561;SDS011;3314;50.890;4.722;2024-03-07T12:00:58;43.5;;;20.6;;
6561;SDS011;3314;50.890;4.722;2024-03-07T12:02:59;37.9;;;18.3;;
6561;SDS011;3314;50.890;4.722;2024-03-07T12:04:58;42.5;;;18.9;;
6561;SDS011;3314;50.890;4.722;2024-03-07T12:07:00;43.9;;;19.4;;
6561;SDS011;3314;50.890;4.722;2024-03-07T12:08:50;40.6;;;18.0;;
6561;SDS011;3314;50.890;4.722;2024-03-07T12:10:54;38.9;;;17.3;;
6561;SDS011;3314;50.890;4.722;2024-03-07T12:12:57;40.3;;;17.4;;
6561;SDS011;3314;50.890;4.722;2024-03-07T12:14:56;40.7;;;19.1;;
6561;SDS011;3314;50.890;4.722;2024-03-07T12:16:57;39.7;;;18.3;;
6561;SDS011;3314;50.890;4.722;2024-03-07T12:18:57;37.8;;;17.0;;
6561;SDS011;3314;50.890;4.722;2024-03-07T12:20:59;33.6;;;16.7;;
6561;SDS011;3314;50.890;4.722;2024-03-07T12:22:47;38.1;;;18.4;;
6561;SDS011;3314;50.890;4.722;2024-03-07T12:24:47;36.3;;;17.0;;
6561;SDS011;3314;50.890;4.722;2024-03-07T12:26:47;33.7;;;16.8;;